KMIE

Delaware County Regional Airport

Muncie, Indiana, USA
METAR KMIE 230953Z AUTO 08004KT 7SM OVC004 08/07 A3019 RMK AO2 RAE16 SLP224 P0000 T00830072
Observed Flight Rules
Feb-23 @ 09:53 UTC (38 minutes ago) Instrument Flight Rules
Wind Visibility Clouds
80° at 4 knots 7 miles
  • Overcast at 400' AGL
Temperatures Readings Precipitation
Current 8°C / 46°F
Dewpoint 7°C / 45°F
Humidity 93%
Altimeter 30.19" Hg
Pressure 1022.4 hPa
Elevation 285
Current Rain 0.005
METAR KMIE 230953Z AUTO 08004KT 7SM OVC004 08/07 A3019 RMK AO2 RAE16 SLP224 P0000 T00830072
Observed Flight Rules
Feb-23 @ 09:53 UTC
(38 minutes ago)
LIFR
Wind Visibility
80° at 4 knots 7 miles
Clouds
  • Overcast at 400' AGL
Temperature Dewpoint
8°C / 46°F 7°C / 45°F
Humidity Altimeter Pressure
93% 30.19" Hg 1022.4 hPa
Current Rain
0.005